Aérodrome :
LOGIN :

S'inscrire | Disclaimer

   EN    FR    IT 

 










Légende :    VFR   VFR Marginal   IFR   IFR Intensif   IFR Très Intensif
Visi : 
Plafond : 
>= 8 km
>= 3000ft
5 à 8 km
1000 à 3000 ft
1500m à 5 km
500 à 1000 ft
800 à 1500m
200 à 500 ft
< 800m
< 200 ft
Symboles :   Orages  Brouillard  Fortes neiges  Fortes précipitations  Vent > 20 kt
SIGMETs :   Divers  Orages  Givrage  Turbulence  Onde Orograph.  Cendres Volcan.






- Altitude de l'aérodrome : 405 ft
- Code IATA : JMK


LGMK - Mikonos

DERNIER METAR :
  • 200920Z 35017KT 9999 SCT018 BKN025 11/03 Q1031

METARs EXPIRÉS :
  • 200850Z 36016KT 9999 SCT018 BKN025 11/03 Q1031
  • 200820Z 36020KT 9999 SCT018 BKN025 11/03 Q1031
  • 200750Z 01016G26KT 9999 SCT018 BKN025 10/03 Q1031
  • 200720Z 36015KT 9999 SCT018 BKN025 09/02 Q1031
  • 200650Z 36011G22KT 9999 SCT018 BKN025 09/02 Q1028

TAF TAF LGMK
Valide du 20 à 09h jusqu'au 20 à 18h UTC


200800Z 2009/2018 36025G35KT 9999 SCT018 BKN025
BECMG 2012/2014 36030G40KT



MET'MAP, la Météo Aéronautique d'un coup d'oeil ! - Copyright ORBIFLY Décembre 2007 - Disclaimer

ORBIFLY MET'MAP TEAM :

Programmation & Développement : Alexandra Zaïnal
Sur une idée originale de : Baudouin d'Aumeries
Assistance à la programmation : Marc-Olivier Méhu
Soutien technique & logistique : Manuel Goepfert

Contact : metmap@orbifly.com




SOURCES & CREDITS :

   NOAA